sensor_id;sensor_type;location;lat;lon;timestamp;pressure;altitude;pressure_sealevel;temperature;humidity
15604;BME280;7902;49.042;9.092;2023-03-19T00:00:16;98782.22;;;14.95;50.34
15604;BME280;7902;49.042;9.092;2023-03-19T00:02:43;98769.97;;;14.94;50.56
15604;BME280;7902;49.042;9.092;2023-03-19T00:05:14;98780.00;;;14.90;49.81
15604;BME280;7902;49.042;9.092;2023-03-19T00:07:40;98790.31;;;14.84;50.45
15604;BME280;7902;49.042;9.092;2023-03-19T00:10:06;98787.00;;;14.82;49.95
15604;BME280;7902;49.042;9.092;2023-03-19T00:12:32;98788.94;;;14.80;50.53
15604;BME280;7902;49.042;9.092;2023-03-19T00:14:58;98793.56;;;14.78;51.01
15604;BME280;7902;49.042;9.092;2023-03-19T00:17:24;98796.59;;;14.83;50.53
15604;BME280;7902;49.042;9.092;2023-03-19T00:19:50;98790.94;;;14.78;50.33
15604;BME280;7902;49.042;9.092;2023-03-19T00:22:16;98786.47;;;14.78;50.75
15604;BME280;7902;49.042;9.092;2023-03-19T00:24:42;98785.34;;;14.81;49.98
15604;BME280;7902;49.042;9.092;2023-03-19T00:27:08;98786.59;;;14.77;50.85
15604;BME280;7902;49.042;9.092;2023-03-19T00:29:34;98783.84;;;14.78;50.82
15604;BME280;7902;49.042;9.092;2023-03-19T00:31:59;98788.56;;;14.75;50.67
15604;BME280;7902;49.042;9.092;2023-03-19T00:34:25;98787.44;;;14.77;50.17
15604;BME280;7902;49.042;9.092;2023-03-19T00:36:51;98791.75;;;14.78;50.60
15604;BME280;7902;49.042;9.092;2023-03-19T00:39:17;98788.94;;;14.80;50.56
15604;BME280;7902;49.042;9.092;2023-03-19T00:41:43;98782.00;;;14.79;50.28
15604;BME280;7902;49.042;9.092;2023-03-19T00:44:17;98777.97;;;14.75;50.26
15604;BME280;7902;49.042;9.092;2023-03-19T00:46:44;98780.09;;;14.71;50.68
15604;BME280;7902;49.042;9.092;2023-03-19T00:49:10;98783.56;;;14.72;50.71
15604;BME280;7902;49.042;9.092;2023-03-19T00:51:36;98773.97;;;14.71;50.38
15604;BME280;7902;49.042;9.092;2023-03-19T00:54:02;98777.97;;;14.75;49.61
15604;BME280;7902;49.042;9.092;2023-03-19T00:56:28;98780.94;;;14.72;50.52
15604;BME280;7902;49.042;9.092;2023-03-19T00:58:55;98792.47;;;14.71;50.06
15604;BME280;7902;49.042;9.092;2023-03-19T01:01:21;98790.38;;;14.65;50.65
15604;BME280;7902;49.042;9.092;2023-03-19T01:03:47;98783.97;;;14.77;50.05
15604;BME280;7902;49.042;9.092;2023-03-19T01:06:13;98785.50;;;14.70;50.56
15604;BME280;7902;49.042;9.092;2023-03-19T01:08:39;98789.00;;;14.70;50.25
15604;BME280;7902;49.042;9.092;2023-03-19T01:11:08;98785.66;;;14.68;50.72
15604;BME280;7902;49.042;9.092;2023-03-19T01:13:34;98791.78;;;14.69;50.67
15604;BME280;7902;49.042;9.092;2023-03-19T01:16:00;98798.16;;;14.76;50.78
15604;BME280;7902;49.042;9.092;2023-03-19T01:18:26;98803.03;;;14.71;51.14
15604;BME280;7902;49.042;9.092;2023-03-19T01:20:52;98797.88;;;14.69;50.66
15604;BME280;7902;49.042;9.092;2023-03-19T01:23:18;98792.88;;;14.76;50.69
15604;BME280;7902;49.042;9.092;2023-03-19T01:25:44;98794.53;;;14.77;50.57
15604;BME280;7902;49.042;9.092;2023-03-19T01:28:11;98796.78;;;14.72;51.04
15604;BME280;7902;49.042;9.092;2023-03-19T01:30:37;98795.94;;;14.71;50.51
15604;BME280;7902;49.042;9.092;2023-03-19T01:33:05;98803.75;;;14.73;50.34
15604;BME280;7902;49.042;9.092;2023-03-19T01:35:32;98814.97;;;14.75;51.36
15604;BME280;7902;49.042;9.092;2023-03-19T01:37:58;98811.38;;;14.76;50.58
15604;BME280;7902;49.042;9.092;2023-03-19T01:40:24;98811.91;;;14.79;50.68
15604;BME280;7902;49.042;9.092;2023-03-19T01:42:56;98813.88;;;14.77;50.73
15604;BME280;7902;49.042;9.092;2023-03-19T01:45:36;98822.78;;;14.76;50.36
15604;BME280;7902;49.042;9.092;2023-03-19T01:48:03;98809.97;;;14.81;50.80
15604;BME280;7902;49.042;9.092;2023-03-19T01:50:40;98822.63;;;14.78;50.77
15604;BME280;7902;49.042;9.092;2023-03-19T01:53:08;98829.31;;;14.82;50.27
15604;BME280;7902;49.042;9.092;2023-03-19T01:55:36;98839.28;;;14.88;50.54
15604;BME280;7902;49.042;9.092;2023-03-19T01:58:03;98844.47;;;14.80;50.27
15604;BME280;7902;49.042;9.092;2023-03-19T02:00:31;98852.13;;;14.83;50.60
15604;BME280;7902;49.042;9.092;2023-03-19T02:03:00;98845.69;;;14.85;50.50
15604;BME280;7902;49.042;9.092;2023-03-19T02:05:27;98846.53;;;14.86;50.35
15604;BME280;7902;49.042;9.092;2023-03-19T02:07:57;98856.00;;;14.79;50.54
15604;BME280;7902;49.042;9.092;2023-03-19T02:10:24;98859.06;;;14.74;50.46
15604;BME280;7902;49.042;9.092;2023-03-19T02:12:50;98857.69;;;14.80;49.74
15604;BME280;7902;49.042;9.092;2023-03-19T02:15:17;98860.75;;;14.75;50.36
15604;BME280;7902;49.042;9.092;2023-03-19T02:17:44;98856.53;;;14.92;50.36
15604;BME280;7902;49.042;9.092;2023-03-19T02:22:51;98860.16;;;14.91;51.13
15604;BME280;7902;49.042;9.092;2023-03-19T02:25:38;98860.16;;;14.91;51.38
15604;BME280;7902;49.042;9.092;2023-03-19T02:28:07;98848.00;;;14.98;52.40
15604;BME280;7902;49.042;9.092;2023-03-19T02:30:34;98844.22;;;15.10;52.34
15604;BME280;7902;49.042;9.092;2023-03-19T02:33:01;98853.56;;;15.05;53.70
15604;BME280;7902;49.042;9.092;2023-03-19T02:35:30;98855.59;;;15.20;52.28
15604;BME280;7902;49.042;9.092;2023-03-19T02:37:58;98859.22;;;15.19;52.80
15604;BME280;7902;49.042;9.092;2023-03-19T02:40:29;98860.31;;;15.17;53.10
15604;BME280;7902;49.042;9.092;2023-03-19T02:42:56;98854.50;;;15.13;53.50
15604;BME280;7902;49.042;9.092;2023-03-19T02:45:27;98850.31;;;15.20;53.68
15604;BME280;7902;49.042;9.092;2023-03-19T02:47:53;98844.84;;;15.22;53.25
15604;BME280;7902;49.042;9.092;2023-03-19T02:50:19;98856.75;;;15.08;55.03
15604;BME280;7902;49.042;9.092;2023-03-19T02:52:45;98856.50;;;15.02;54.46
15604;BME280;7902;49.042;9.092;2023-03-19T02:55:11;98853.97;;;15.10;54.90
15604;BME280;7902;49.042;9.092;2023-03-19T02:57:36;98849.78;;;15.07;55.29
15604;BME280;7902;49.042;9.092;2023-03-19T03:00:04;98839.59;;;15.12;54.52
15604;BME280;7902;49.042;9.092;2023-03-19T03:02:30;98841.56;;;15.10;54.54
15604;BME280;7902;49.042;9.092;2023-03-19T03:04:56;98831.97;;;15.09;55.07
15604;BME280;7902;49.042;9.092;2023-03-19T03:07:22;98844.50;;;15.07;55.51
15604;BME280;7902;49.042;9.092;2023-03-19T03:09:48;98854.00;;;15.00;55.08
15604;BME280;7902;49.042;9.092;2023-03-19T03:12:14;98855.66;;;15.01;55.60
15604;BME280;7902;49.042;9.092;2023-03-19T03:14:40;98855.91;;;15.08;55.31
15604;BME280;7902;49.042;9.092;2023-03-19T03:17:06;98851.22;;;15.02;55.60
15604;BME280;7902;49.042;9.092;2023-03-19T03:19:34;98857.06;;;14.96;55.95
15604;BME280;7902;49.042;9.092;2023-03-19T03:22:00;98862.22;;;14.97;55.63
15604;BME280;7902;49.042;9.092;2023-03-19T03:24:26;98862.59;;;15.02;55.06
15604;BME280;7902;49.042;9.092;2023-03-19T03:26:52;98868.25;;;15.17;54.54
15604;BME280;7902;49.042;9.092;2023-03-19T03:29:18;98872.72;;;15.16;54.59
15604;BME280;7902;49.042;9.092;2023-03-19T03:31:44;98861.69;;;15.21;54.94
15604;BME280;7902;49.042;9.092;2023-03-19T03:34:10;98863.75;;;15.00;56.18
15604;BME280;7902;49.042;9.092;2023-03-19T03:36:36;98865.00;;;14.96;55.32
15604;BME280;7902;49.042;9.092;2023-03-19T03:39:02;98868.19;;;14.99;55.47
15604;BME280;7902;49.042;9.092;2023-03-19T03:41:29;98875.72;;;14.94;56.11
15604;BME280;7902;49.042;9.092;2023-03-19T03:43:54;98866.81;;;14.95;56.12
15604;BME280;7902;49.042;9.092;2023-03-19T03:46:21;98871.56;;;14.91;55.80
15604;BME280;7902;49.042;9.092;2023-03-19T03:48:46;98872.41;;;14.92;55.96
15604;BME280;7902;49.042;9.092;2023-03-19T03:51:14;98875.19;;;14.90;56.39
15604;BME280;7902;49.042;9.092;2023-03-19T03:53:40;98871.41;;;14.93;55.82
15604;BME280;7902;49.042;9.092;2023-03-19T03:56:06;98874.66;;;14.87;56.61
15604;BME280;7902;49.042;9.092;2023-03-19T03:58:32;98873.50;;;14.89;56.25
15604;BME280;7902;49.042;9.092;2023-03-19T04:00:58;98880.78;;;14.87;56.00
15604;BME280;7902;49.042;9.092;2023-03-19T04:03:24;98880.91;;;14.86;55.97
15604;BME280;7902;49.042;9.092;2023-03-19T04:05:50;98876.91;;;14.72;57.20
15604;BME280;7902;49.042;9.092;2023-03-19T04:08:16;98878.00;;;14.70;56.63
15604;BME280;7902;49.042;9.092;2023-03-19T04:10:42;98872.88;;;14.78;56.42
15604;BME280;7902;49.042;9.092;2023-03-19T04:13:10;98876.06;;;14.72;56.41
15604;BME280;7902;49.042;9.092;2023-03-19T04:15:36;98878.00;;;14.70;56.15
15604;BME280;7902;49.042;9.092;2023-03-19T04:18:03;98886.34;;;14.75;56.90
15604;BME280;7902;49.042;9.092;2023-03-19T04:20:29;98886.22;;;14.76;56.60
15604;BME280;7902;49.042;9.092;2023-03-19T04:22:54;98890.53;;;14.77;56.22
15604;BME280;7902;49.042;9.092;2023-03-19T04:25:20;98883.13;;;14.81;57.04
15604;BME280;7902;49.042;9.092;2023-03-19T04:27:47;98884.81;;;14.82;56.30
15604;BME280;7902;49.042;9.092;2023-03-19T04:30:13;98891.59;;;14.84;56.04
15604;BME280;7902;49.042;9.092;2023-03-19T04:32:39;98888.13;;;14.84;56.91
15604;BME280;7902;49.042;9.092;2023-03-19T04:35:05;98886.31;;;14.84;56.03
15604;BME280;7902;49.042;9.092;2023-03-19T04:37:31;98888.97;;;14.75;56.09
15604;BME280;7902;49.042;9.092;2023-03-19T04:39:57;98887.75;;;14.69;56.75
15604;BME280;7902;49.042;9.092;2023-03-19T04:42:24;98889.97;;;14.74;57.09
15604;BME280;7902;49.042;9.092;2023-03-19T04:44:50;98891.91;;;14.72;56.68
15604;BME280;7902;49.042;9.092;2023-03-19T04:47:17;98897.06;;;14.73;56.59
15604;BME280;7902;49.042;9.092;2023-03-19T04:49:43;98896.50;;;14.79;56.22
15604;BME280;7902;49.042;9.092;2023-03-19T04:52:09;98897.75;;;14.75;57.06
15604;BME280;7902;49.042;9.092;2023-03-19T04:54:35;98901.53;;;14.73;56.57
15604;BME280;7902;49.042;9.092;2023-03-19T04:57:01;98904.00;;;14.84;56.78
15604;BME280;7902;49.042;9.092;2023-03-19T04:59:27;98908.88;;;14.79;56.31
15604;BME280;7902;49.042;9.092;2023-03-19T05:01:53;98916.97;;;14.77;56.50
15604;BME280;7902;49.042;9.092;2023-03-19T05:04:19;98920.88;;;14.73;57.21
15604;BME280;7902;49.042;9.092;2023-03-19T05:06:45;98919.44;;;14.79;56.86
15604;BME280;7902;49.042;9.092;2023-03-19T05:09:11;98911.09;;;14.74;57.03
15604;BME280;7902;49.042;9.092;2023-03-19T05:11:37;98917.09;;;14.76;56.98
15604;BME280;7902;49.042;9.092;2023-03-19T05:14:04;98916.25;;;14.75;57.13
15604;BME280;7902;49.042;9.092;2023-03-19T05:16:30;98918.34;;;14.72;57.18
15604;BME280;7902;49.042;9.092;2023-03-19T05:18:56;98924.31;;;14.74;57.49
15604;BME280;7902;49.042;9.092;2023-03-19T05:21:22;98917.22;;;14.74;58.00
15604;BME280;7902;49.042;9.092;2023-03-19T05:23:48;98914.47;;;14.66;57.56
15604;BME280;7902;49.042;9.092;2023-03-19T05:26:17;98934.34;;;14.80;57.22
15604;BME280;7902;49.042;9.092;2023-03-19T05:28:43;98933.09;;;14.65;57.31
15604;BME280;7902;49.042;9.092;2023-03-19T05:31:09;98939.63;;;14.70;58.01
15604;BME280;7902;49.042;9.092;2023-03-19T05:33:35;98940.88;;;14.66;58.06
15604;BME280;7902;49.042;9.092;2023-03-19T05:36:01;98934.06;;;14.83;56.67
15604;BME280;7902;49.042;9.092;2023-03-19T05:38:27;98937.09;;;14.88;56.96
15604;BME280;7902;49.042;9.092;2023-03-19T05:40:53;98935.16;;;14.80;57.72
15604;BME280;7902;49.042;9.092;2023-03-19T05:43:19;98946.28;;;14.74;57.87
15604;BME280;7902;49.042;9.092;2023-03-19T05:45:49;98937.25;;;14.86;57.06
15604;BME280;7902;49.042;9.092;2023-03-19T05:48:17;98938.94;;;14.87;57.33
15604;BME280;7902;49.042;9.092;2023-03-19T05:50:43;98936.72;;;14.83;56.88
15604;BME280;7902;49.042;9.092;2023-03-19T05:53:09;98943.63;;;14.84;57.35
15604;BME280;7902;49.042;9.092;2023-03-19T05:55:34;98942.97;;;14.82;56.82
15604;BME280;7902;49.042;9.092;2023-03-19T05:58:00;98937.69;;;14.82;56.16
15604;BME280;7902;49.042;9.092;2023-03-19T06:00:26;98938.94;;;14.78;57.30
15604;BME280;7902;49.042;9.092;2023-03-19T06:02:52;98945.44;;;14.93;56.55
15604;BME280;7902;49.042;9.092;2023-03-19T06:05:20;98952.28;;;14.86;57.38
15604;BME280;7902;49.042;9.092;2023-03-19T06:07:46;98953.94;;;14.87;57.16
15604;BME280;7902;49.042;9.092;2023-03-19T06:10:12;98958.00;;;14.81;57.12
15604;BME280;7902;49.042;9.092;2023-03-19T06:12:38;98957.88;;;14.73;57.55
15604;BME280;7902;49.042;9.092;2023-03-19T06:15:04;98964.53;;;14.87;57.46
15604;BME280;7902;49.042;9.092;2023-03-19T06:17:30;98967.03;;;14.79;57.88
15604;BME280;7902;49.042;9.092;2023-03-19T06:19:56;98961.47;;;14.82;57.67
15604;BME280;7902;49.042;9.092;2023-03-19T06:22:21;98962.31;;;14.82;58.22
15604;BME280;7902;49.042;9.092;2023-03-19T06:24:47;98966.22;;;14.78;57.95
15604;BME280;7902;49.042;9.092;2023-03-19T06:27:14;98971.22;;;14.81;57.76
15604;BME280;7902;49.042;9.092;2023-03-19T06:29:40;98973.31;;;14.78;57.83
15604;BME280;7902;49.042;9.092;2023-03-19T06:32:06;98978.00;;;14.65;58.69
15604;BME280;7902;49.042;9.092;2023-03-19T06:34:32;98967.72;;;14.81;58.23
15604;BME280;7902;49.042;9.092;2023-03-19T06:36:58;98967.03;;;14.79;57.86
15604;BME280;7902;49.042;9.092;2023-03-19T06:39:24;98961.72;;;14.88;58.64
15604;BME280;7902;49.042;9.092;2023-03-19T06:41:50;98960.22;;;14.86;58.07
15604;BME280;7902;49.042;9.092;2023-03-19T06:44:16;98962.16;;;14.84;58.72
15604;BME280;7902;49.042;9.092;2023-03-19T06:46:42;98963.69;;;14.77;59.74
15604;BME280;7902;49.042;9.092;2023-03-19T06:49:08;98965.19;;;14.89;58.87
15604;BME280;7902;49.042;9.092;2023-03-19T06:51:33;98972.47;;;14.87;58.16
15604;BME280;7902;49.042;9.092;2023-03-19T06:53:59;98970.78;;;14.76;59.15
15604;BME280;7902;49.042;9.092;2023-03-19T06:56:25;98977.16;;;14.83;58.46
15604;BME280;7902;49.042;9.092;2023-03-19T06:58:51;98977.34;;;14.82;58.42
15604;BME280;7902;49.042;9.092;2023-03-19T07:01:17;98977.44;;;14.90;58.06
15604;BME280;7902;49.042;9.092;2023-03-19T07:03:43;98985.94;;;14.93;58.05
15604;BME280;7902;49.042;9.092;2023-03-19T07:06:09;98984.41;;;14.81;58.75
15604;BME280;7902;49.042;9.092;2023-03-19T07:08:35;98987.91;;;14.82;58.46
15604;BME280;7902;49.042;9.092;2023-03-19T07:11:05;98998.75;;;14.79;58.37
15604;BME280;7902;49.042;9.092;2023-03-19T07:13:32;98991.50;;;14.81;59.15
15604;BME280;7902;49.042;9.092;2023-03-19T07:15:58;98992.34;;;14.91;57.92
15604;BME280;7902;49.042;9.092;2023-03-19T07:18:25;98989.28;;;14.96;57.12
15604;BME280;7902;49.042;9.092;2023-03-19T07:20:51;98999.13;;;15.03;58.37
15604;BME280;7902;49.042;9.092;2023-03-19T07:23:18;98996.75;;;15.10;58.42
15604;BME280;7902;49.042;9.092;2023-03-19T07:25:44;98993.84;;;15.03;57.00
15604;BME280;7902;49.042;9.092;2023-03-19T07:28:10;98985.38;;;15.00;57.19
15604;BME280;7902;49.042;9.092;2023-03-19T07:30:36;98985.78;;;15.05;56.77
15604;BME280;7902;49.042;9.092;2023-03-19T07:33:04;98985.91;;;15.03;57.40
15604;BME280;7902;49.042;9.092;2023-03-19T07:35:32;98988.00;;;15.00;57.89
15604;BME280;7902;49.042;9.092;2023-03-19T07:38:01;98991.50;;;15.00;57.08
15604;BME280;7902;49.042;9.092;2023-03-19T07:40:31;98996.50;;;15.03;57.81
15604;BME280;7902;49.042;9.092;2023-03-19T07:42:57;99005.13;;;15.05;58.58
15604;BME280;7902;49.042;9.092;2023-03-19T07:45:22;98999.53;;;15.08;58.30
15604;BME280;7902;49.042;9.092;2023-03-19T07:47:49;98999.53;;;15.08;57.80
15604;BME280;7902;49.042;9.092;2023-03-19T07:50:16;99003.56;;;15.12;57.93
15604;BME280;7902;49.042;9.092;2023-03-19T07:52:45;98996.75;;;15.10;58.71
15604;BME280;7902;49.042;9.092;2023-03-19T07:55:11;99002.91;;;15.10;59.29
15604;BME280;7902;49.042;9.092;2023-03-19T07:57:38;99006.91;;;15.14;59.23
15604;BME280;7902;49.042;9.092;2023-03-19T08:00:04;98996.75;;;15.10;60.46
15604;BME280;7902;49.042;9.092;2023-03-19T08:02:30;98997.03;;;15.07;60.54
15604;BME280;7902;49.042;9.092;2023-03-19T08:04:56;99004.84;;;15.08;60.88
15604;BME280;7902;49.042;9.092;2023-03-19T08:07:23;99005.53;;;15.10;61.66
15604;BME280;7902;49.042;9.092;2023-03-19T08:09:49;99001.34;;;15.17;57.65
15604;BME280;7902;49.042;9.092;2023-03-19T08:12:14;99004.56;;;15.11;59.25
15604;BME280;7902;49.042;9.092;2023-03-19T08:14:41;99007.56;;;15.26;58.86
15604;BME280;7902;49.042;9.092;2023-03-19T08:17:07;99004.25;;;15.24;55.88
15604;BME280;7902;49.042;9.092;2023-03-19T08:19:33;99006.63;;;15.17;58.39
15604;BME280;7902;49.042;9.092;2023-03-19T08:21:58;98998.13;;;15.23;56.91
15604;BME280;7902;49.042;9.092;2023-03-19T08:24:25;98990.06;;;15.25;55.99
15604;BME280;7902;49.042;9.092;2023-03-19T08:26:50;98995.88;;;15.28;56.23
15604;BME280;7902;49.042;9.092;2023-03-19T08:29:16;98991.28;;;15.30;56.17
15604;BME280;7902;49.042;9.092;2023-03-19T08:31:42;99002.84;;;15.29;56.31
15604;BME280;7902;49.042;9.092;2023-03-19T08:34:08;99001.03;;;15.30;56.53
15604;BME280;7902;49.042;9.092;2023-03-19T08:36:35;98999.22;;;15.30;55.33
15604;BME280;7902;49.042;9.092;2023-03-19T08:39:01;99003.97;;;15.27;57.34
15604;BME280;7902;49.042;9.092;2023-03-19T08:41:28;99000.47;;;15.26;56.67
15604;BME280;7902;49.042;9.092;2023-03-19T08:43:55;99003.81;;;15.28;57.50
15604;BME280;7902;49.042;9.092;2023-03-19T08:46:21;99008.97;;;15.40;56.36
15604;BME280;7902;49.042;9.092;2023-03-19T08:48:47;99013.97;;;15.33;57.34
15604;BME280;7902;49.042;9.092;2023-03-19T08:51:13;99008.41;;;15.26;58.16
15604;BME280;7902;49.042;9.092;2023-03-19T08:53:39;99013.28;;;15.31;57.94
15604;BME280;7902;49.042;9.092;2023-03-19T08:56:06;99012.84;;;15.35;57.92
15604;BME280;7902;49.042;9.092;2023-03-19T08:58:32;99014.53;;;15.27;58.05
15604;BME280;7902;49.042;9.092;2023-03-19T09:01:06;99009.22;;;15.36;58.26
15604;BME280;7902;49.042;9.092;2023-03-19T09:03:34;99014.94;;;15.42;56.98
15604;BME280;7902;49.042;9.092;2023-03-19T09:06:01;99015.25;;;15.29;56.92
15604;BME280;7902;49.042;9.092;2023-03-19T09:08:28;99012.84;;;15.35;57.19
15604;BME280;7902;49.042;9.092;2023-03-19T09:10:56;99014.63;;;15.45;56.31
15604;BME280;7902;49.042;9.092;2023-03-19T09:13:22;99016.19;;;15.37;57.15
15604;BME280;7902;49.042;9.092;2023-03-19T09:15:48;99016.59;;;15.43;56.48
15604;BME280;7902;49.042;9.092;2023-03-19T09:18:14;99020.66;;;15.37;57.70
15604;BME280;7902;49.042;9.092;2023-03-19T09:20:41;99015.31;;;15.47;58.55
15604;BME280;7902;49.042;9.092;2023-03-19T09:23:07;99017.69;;;15.50;57.73
15604;BME280;7902;49.042;9.092;2023-03-19T09:25:33;99018.25;;;15.63;56.16
15604;BME280;7902;49.042;9.092;2023-03-19T09:27:59;99022.13;;;15.59;56.39
15604;BME280;7902;49.042;9.092;2023-03-19T09:30:25;99019.75;;;15.65;55.97
15604;BME280;7902;49.042;9.092;2023-03-19T09:32:51;99017.13;;;15.56;57.92
15604;BME280;7902;49.042;9.092;2023-03-19T09:35:17;99016.47;;;15.54;56.39
15604;BME280;7902;49.042;9.092;2023-03-19T09:37:43;99008.72;;;15.70;56.32
15604;BME280;7902;49.042;9.092;2023-03-19T09:40:29;99005.66;;;15.74;56.96
15604;BME280;7902;49.042;9.092;2023-03-19T09:43:21;99006.03;;;15.79;56.25
15604;BME280;7902;49.042;9.092;2023-03-19T09:45:49;99016.97;;;15.67;56.36
15604;BME280;7902;49.042;9.092;2023-03-19T09:48:18;99013.50;;;15.66;56.04
15604;BME280;7902;49.042;9.092;2023-03-19T09:50:54;99015.13;;;15.77;56.24
15604;BME280;7902;49.042;9.092;2023-03-19T09:56:01;98993.56;;;15.72;56.55
15604;BME280;7902;49.042;9.092;2023-03-19T09:58:31;99005.69;;;15.92;55.61
15604;BME280;7902;49.042;9.092;2023-03-19T10:00:58;98997.56;;;15.76;55.81
15604;BME280;7902;49.042;9.092;2023-03-19T10:09:02;98995.28;;;15.91;55.75
15604;BME280;7902;49.042;9.092;2023-03-19T10:14:40;99004.06;;;15.91;55.60
15604;BME280;7902;49.042;9.092;2023-03-19T10:17:15;98995.50;;;15.97;55.02
15604;BME280;7902;49.042;9.092;2023-03-19T10:19:52;98992.59;;;16.36;53.45
15604;BME280;7902;49.042;9.092;2023-03-19T10:22:24;98994.56;;;16.61;52.28
15604;BME280;7902;49.042;9.092;2023-03-19T10:24:55;98990.59;;;16.83;52.10
15604;BME280;7902;49.042;9.092;2023-03-19T10:27:25;98990.00;;;16.89;51.24
15604;BME280;7902;49.042;9.092;2023-03-19T10:29:53;98998.00;;;16.97;50.27
15604;BME280;7902;49.042;9.092;2023-03-19T10:32:37;98991.63;;;17.07;50.77
15604;BME280;7902;49.042;9.092;2023-03-19T10:35:54;98990.31;;;17.11;49.27
15604;BME280;7902;49.042;9.092;2023-03-19T10:38:25;98987.63;;;17.29;49.41
15604;BME280;7902;49.042;9.092;2023-03-19T10:43:53;98991.16;;;17.38;49.19
15604;BME280;7902;49.042;9.092;2023-03-19T10:46:19;98982.16;;;17.31;49.23
15604;BME280;7902;49.042;9.092;2023-03-19T10:48:47;98980.63;;;17.28;48.36
15604;BME280;7902;49.042;9.092;2023-03-19T10:51:16;98964.34;;;17.49;48.83
15604;BME280;7902;49.042;9.092;2023-03-19T10:53:45;98977.59;;;17.41;48.34
15604;BME280;7902;49.042;9.092;2023-03-19T10:56:18;98984.59;;;17.50;47.33
15604;BME280;7902;49.042;9.092;2023-03-19T10:59:01;98981.13;;;17.58;46.62
15604;BME280;7902;49.042;9.092;2023-03-19T11:01:33;98973.34;;;17.56;46.05
15604;BME280;7902;49.042;9.092;2023-03-19T11:04:01;98966.66;;;17.70;47.02
15604;BME280;7902;49.042;9.092;2023-03-19T11:06:37;98966.03;;;17.58;47.31
15604;BME280;7902;49.042;9.092;2023-03-19T11:11:42;98961.16;;;17.71;47.47
15604;BME280;7902;49.042;9.092;2023-03-19T11:14:36;98961.56;;;17.84;47.30
15604;BME280;7902;49.042;9.092;2023-03-19T11:19:42;98952.28;;;17.88;47.15
15604;BME280;7902;49.042;9.092;2023-03-19T11:22:16;98948.44;;;17.91;47.35
15604;BME280;7902;49.042;9.092;2023-03-19T11:24:53;98944.38;;;18.13;46.49
15604;BME280;7902;49.042;9.092;2023-03-19T11:27:32;98943.69;;;18.19;46.23
15604;BME280;7902;49.042;9.092;2023-03-19T11:30:00;98946.66;;;17.99;46.50
15604;BME280;7902;49.042;9.092;2023-03-19T11:32:56;98937.59;;;18.26;47.12
15604;BME280;7902;49.042;9.092;2023-03-19T11:35:36;98937.75;;;18.17;46.21
15604;BME280;7902;49.042;9.092;2023-03-19T11:38:12;98938.09;;;18.22;46.69
15604;BME280;7902;49.042;9.092;2023-03-19T11:41:02;98941.06;;;18.27;46.09
15604;BME280;7902;49.042;9.092;2023-03-19T11:43:53;98942.22;;;18.24;46.81
15604;BME280;7902;49.042;9.092;2023-03-19T11:46:37;98937.91;;;18.15;46.73
15604;BME280;7902;49.042;9.092;2023-03-19T11:49:17;98932.28;;;18.34;45.79
15604;BME280;7902;49.042;9.092;2023-03-19T11:52:24;98930.47;;;18.43;45.59
15604;BME280;7902;49.042;9.092;2023-03-19T11:57:26;98929.97;;;18.39;45.51
15604;BME280;7902;49.042;9.092;2023-03-19T12:03:52;98925.13;;;18.35;46.52
15604;BME280;7902;49.042;9.092;2023-03-19T12:12:06;98918.34;;;18.40;46.06
15604;BME280;7902;49.042;9.092;2023-03-19T12:19:45;98927.78;;;18.51;45.94
15604;BME280;7902;49.042;9.092;2023-03-19T12:22:17;98937.75;;;18.41;45.73
15604;BME280;7902;49.042;9.092;2023-03-19T12:28:00;98933.75;;;18.21;46.31
15604;BME280;7902;49.042;9.092;2023-03-19T12:30:41;98927.78;;;18.35;46.15
15604;BME280;7902;49.042;9.092;2023-03-19T12:36:10;98938.03;;;18.06;47.73
15604;BME280;7902;49.042;9.092;2023-03-19T12:38:38;98936.34;;;17.88;48.38
15604;BME280;7902;49.042;9.092;2023-03-19T12:41:08;98937.81;;;17.91;48.33
15604;BME280;7902;49.042;9.092;2023-03-19T12:44:00;98942.41;;;17.73;48.64
15604;BME280;7902;49.042;9.092;2023-03-19T12:46:30;98940.94;;;17.78;49.15
15604;BME280;7902;49.042;9.092;2023-03-19T12:49:03;98945.69;;;17.67;49.12
15604;BME280;7902;49.042;9.092;2023-03-19T12:51:34;98954.72;;;17.48;50.10
15604;BME280;7902;49.042;9.092;2023-03-19T12:54:05;98946.81;;;17.56;50.32
15604;BME280;7902;49.042;9.092;2023-03-19T12:56:51;98945.59;;;17.50;50.43
15604;BME280;7902;49.042;9.092;2023-03-19T12:59:38;98945.88;;;17.39;51.76
15604;BME280;7902;49.042;9.092;2023-03-19T13:02:20;98952.97;;;17.31;52.25
15604;BME280;7902;49.042;9.092;2023-03-19T13:04:54;98955.28;;;17.34;51.54
15604;BME280;7902;49.042;9.092;2023-03-19T13:07:35;98950.63;;;17.28;51.02
15604;BME280;7902;49.042;9.092;2023-03-19T13:10:10;98944.50;;;17.27;51.14
15604;BME280;7902;49.042;9.092;2023-03-19T13:12:39;98942.34;;;17.31;50.75
15604;BME280;7902;49.042;9.092;2023-03-19T13:15:13;98946.09;;;17.20;51.32
15604;BME280;7902;49.042;9.092;2023-03-19T13:17:52;98948.25;;;17.17;51.33
15604;BME280;7902;49.042;9.092;2023-03-19T13:23:13;98950.66;;;17.10;51.32
15604;BME280;7902;49.042;9.092;2023-03-19T13:25:45;98947.72;;;17.13;51.29
15604;BME280;7902;49.042;9.092;2023-03-19T13:28:30;98943.53;;;17.10;51.17
15604;BME280;7902;49.042;9.092;2023-03-19T13:30:58;98939.53;;;17.06;51.48
15604;BME280;7902;49.042;9.092;2023-03-19T13:33:25;98941.22;;;17.07;51.69
15604;BME280;7902;49.042;9.092;2023-03-19T13:35:54;98939.03;;;17.03;51.85
15604;BME280;7902;49.042;9.092;2023-03-19T13:38:24;98947.03;;;17.11;51.87
15604;BME280;7902;49.042;9.092;2023-03-19T13:56:14;98945.91;;;17.14;50.83
15604;BME280;7902;49.042;9.092;2023-03-19T13:58:52;98947.56;;;17.15;51.10
15604;BME280;7902;49.042;9.092;2023-03-19T14:01:38;98949.84;;;17.09;51.38
15604;BME280;7902;49.042;9.092;2023-03-19T14:04:13;98944.63;;;17.00;51.74
15604;BME280;7902;49.042;9.092;2023-03-19T14:06:44;98948.19;;;17.08;51.56
15604;BME280;7902;49.042;9.092;2023-03-19T14:17:30;98950.16;;;17.06;53.82
15604;BME280;7902;49.042;9.092;2023-03-19T14:26:09;98969.59;;;16.89;54.74
15604;BME280;7902;49.042;9.092;2023-03-19T14:29:00;98971.13;;;16.74;55.27
15604;BME280;7902;49.042;9.092;2023-03-19T14:31:32;98969.47;;;16.73;55.14
15604;BME280;7902;49.042;9.092;2023-03-19T14:34:03;98976.88;;;16.52;56.28
15604;BME280;7902;49.042;9.092;2023-03-19T14:36:34;98976.84;;;16.61;55.97